sensor_id;sensor_type;location;lat;lon;timestamp;pressure;altitude;pressure_sealevel;temperature;humidity
69784;BME280;57054;51.978;4.498;2023-05-07T00:00:09;101626.69;;;14.65;95.09
69784;BME280;57054;51.978;4.498;2023-05-07T00:02:35;101623.13;;;14.66;95.11
69784;BME280;57054;51.978;4.498;2023-05-07T00:05:01;101624.09;;;14.64;94.82
69784;BME280;57054;51.978;4.498;2023-05-07T00:07:27;101619.78;;;14.63;94.92
69784;BME280;57054;51.978;4.498;2023-05-07T00:09:53;101620.69;;;14.62;94.86
69784;BME280;57054;51.978;4.498;2023-05-07T00:12:18;101627.75;;;14.61;94.65
69784;BME280;57054;51.978;4.498;2023-05-07T00:14:44;101627.81;;;14.59;94.58
69784;BME280;57054;51.978;4.498;2023-05-07T00:17:09;101631.38;;;14.58;94.87
69784;BME280;57054;51.978;4.498;2023-05-07T00:19:35;101632.31;;;14.57;94.57
69784;BME280;57054;51.978;4.498;2023-05-07T00:22:00;101627.97;;;14.55;94.97
69784;BME280;57054;51.978;4.498;2023-05-07T00:24:26;101627.13;;;14.54;94.81
69784;BME280;57054;51.978;4.498;2023-05-07T00:26:51;101624.56;;;14.53;94.84
69784;BME280;57054;51.978;4.498;2023-05-07T00:29:17;101626.28;;;14.54;94.41
69784;BME280;57054;51.978;4.498;2023-05-07T00:31:43;101622.88;;;14.52;94.57
69784;BME280;57054;51.978;4.498;2023-05-07T00:34:08;101613.28;;;14.49;94.62
69784;BME280;57054;51.978;4.498;2023-05-07T00:36:34;101626.41;;;14.51;94.75
69784;BME280;57054;51.978;4.498;2023-05-07T00:39:00;101615.09;;;14.49;94.73
69784;BME280;57054;51.978;4.498;2023-05-07T00:41:27;101616.00;;;14.48;94.52
69784;BME280;57054;51.978;4.498;2023-05-07T00:43:52;101617.78;;;14.47;94.75
69784;BME280;57054;51.978;4.498;2023-05-07T00:46:22;101620.47;;;14.46;94.36
69784;BME280;57054;51.978;4.498;2023-05-07T00:48:48;101608.25;;;14.45;94.68
69784;BME280;57054;51.978;4.498;2023-05-07T00:51:15;101609.16;;;14.44;94.64
69784;BME280;57054;51.978;4.498;2023-05-07T00:53:40;101613.59;;;14.43;94.42
69784;BME280;57054;51.978;4.498;2023-05-07T00:56:06;101612.72;;;14.43;94.68
69784;BME280;57054;51.978;4.498;2023-05-07T00:58:33;101609.28;;;14.40;94.80
69784;BME280;57054;51.978;4.498;2023-05-07T01:04:20;101608.50;;;14.38;94.63
69784;BME280;57054;51.978;4.498;2023-05-07T01:06:46;101615.56;;;14.38;94.49
69784;BME280;57054;51.978;4.498;2023-05-07T01:09:12;101606.81;;;14.37;94.48
69784;BME280;57054;51.978;4.498;2023-05-07T01:11:38;101601.59;;;14.36;94.66
69784;BME280;57054;51.978;4.498;2023-05-07T01:14:05;101597.25;;;14.35;94.50
69784;BME280;57054;51.978;4.498;2023-05-07T01:16:31;101597.31;;;14.33;94.66
69784;BME280;57054;51.978;4.498;2023-05-07T01:18:57;101603.50;;;14.32;94.71
69784;BME280;57054;51.978;4.498;2023-05-07T01:21:26;101596.53;;;14.31;95.17
69784;BME280;57054;51.978;4.498;2023-05-07T01:23:52;101593.97;;;14.30;94.97
69784;BME280;57054;51.978;4.498;2023-05-07T01:26:18;101589.63;;;14.29;95.12
69784;BME280;57054;51.978;4.498;2023-05-07T01:28:45;101590.53;;;14.28;95.05
69784;BME280;57054;51.978;4.498;2023-05-07T01:31:12;101584.47;;;14.26;95.33
69784;BME280;57054;51.978;4.498;2023-05-07T01:33:40;101592.38;;;14.26;95.22
69784;BME280;57054;51.978;4.498;2023-05-07T01:36:07;101586.31;;;14.24;95.55
69784;BME280;57054;51.978;4.498;2023-05-07T01:38:34;101586.38;;;14.22;95.98
69784;BME280;57054;51.978;4.498;2023-05-07T01:41:01;101594.34;;;14.20;95.92
69784;BME280;57054;51.978;4.498;2023-05-07T01:43:28;101598.78;;;14.20;95.94
69784;BME280;57054;51.978;4.498;2023-05-07T01:45:54;101586.59;;;14.17;96.15
69784;BME280;57054;51.978;4.498;2023-05-07T01:48:20;101587.53;;;14.16;96.21
69784;BME280;57054;51.978;4.498;2023-05-07T01:50:46;101589.38;;;14.14;96.18
69784;BME280;57054;51.978;4.498;2023-05-07T01:53:11;101586.72;;;14.14;96.28
69784;BME280;57054;51.978;4.498;2023-05-07T01:55:37;101588.53;;;14.14;96.48
69784;BME280;57054;51.978;4.498;2023-05-07T01:58:03;101588.59;;;14.12;96.72
69784;BME280;57054;51.978;4.498;2023-05-07T02:00:28;101593.78;;;14.14;96.34
69784;BME280;57054;51.978;4.498;2023-05-07T02:02:54;101582.47;;;14.12;96.62
69784;BME280;57054;51.978;4.498;2023-05-07T02:05:19;101587.75;;;14.12;96.94
69784;BME280;57054;51.978;4.498;2023-05-07T02:07:45;101587.75;;;14.12;96.82
69784;BME280;57054;51.978;4.498;2023-05-07T02:10:10;101588.59;;;14.12;97.15
69784;BME280;57054;51.978;4.498;2023-05-07T02:12:36;101589.56;;;14.10;97.16
69784;BME280;57054;51.978;4.498;2023-05-07T02:15:01;101581.66;;;14.10;97.35
69784;BME280;57054;51.978;4.498;2023-05-07T02:17:27;101589.66;;;14.08;97.43
69784;BME280;57054;51.978;4.498;2023-05-07T02:19:52;101595.75;;;14.09;97.59
69784;BME280;57054;51.978;4.498;2023-05-07T02:22:18;101596.59;;;14.09;97.66
69784;BME280;57054;51.978;4.498;2023-05-07T02:24:43;101595.75;;;14.09;97.53
69784;BME280;57054;51.978;4.498;2023-05-07T02:27:09;101593.91;;;14.11;97.42
69784;BME280;57054;51.978;4.498;2023-05-07T02:29:35;101592.13;;;14.11;97.23
69784;BME280;57054;51.978;4.498;2023-05-07T02:32:00;101592.19;;;14.10;97.17
69784;BME280;57054;51.978;4.498;2023-05-07T02:34:26;101599.19;;;14.11;97.25
69784;BME280;57054;51.978;4.498;2023-05-07T02:36:52;101589.56;;;14.10;97.42
69784;BME280;57054;51.978;4.498;2023-05-07T02:39:17;101595.75;;;14.09;97.20
69784;BME280;57054;51.978;4.498;2023-05-07T02:41:42;101596.56;;;14.11;97.23
69784;BME280;57054;51.978;4.498;2023-05-07T02:44:08;101586.91;;;14.10;97.00
69784;BME280;57054;51.978;4.498;2023-05-07T02:46:34;101594.81;;;14.10;97.03
69784;BME280;57054;51.978;4.498;2023-05-07T02:48:59;101591.34;;;14.09;97.12
69784;BME280;57054;51.978;4.498;2023-05-07T02:51:25;101592.19;;;14.10;97.23
69784;BME280;57054;51.978;4.498;2023-05-07T02:53:51;101595.75;;;14.09;97.45
69784;BME280;57054;51.978;4.498;2023-05-07T02:56:16;101591.41;;;14.08;97.69
69784;BME280;57054;51.978;4.498;2023-05-07T02:58:41;101590.50;;;14.09;97.79
69784;BME280;57054;51.978;4.498;2023-05-07T03:01:08;101588.88;;;14.06;97.94
69784;BME280;57054;51.978;4.498;2023-05-07T03:03:33;101591.50;;;14.06;98.15
69784;BME280;57054;51.978;4.498;2023-05-07T03:05:59;101593.25;;;14.06;98.17
69784;BME280;57054;51.978;4.498;2023-05-07T03:08:24;101593.25;;;14.06;98.58
69784;BME280;57054;51.978;4.498;2023-05-07T03:10:50;101594.19;;;14.05;98.53
69784;BME280;57054;51.978;4.498;2023-05-07T03:13:16;101584.50;;;14.05;98.84
69784;BME280;57054;51.978;4.498;2023-05-07T03:15:41;101588.94;;;14.05;98.89
69784;BME280;57054;51.978;4.498;2023-05-07T03:18:07;101591.56;;;14.05;98.78
69784;BME280;57054;51.978;4.498;2023-05-07T03:20:32;101587.97;;;14.06;98.79
69784;BME280;57054;51.978;4.498;2023-05-07T03:22:57;101588.88;;;14.06;99.17
69784;BME280;57054;51.978;4.498;2023-05-07T03:25:23;101594.97;;;14.07;99.20
69784;BME280;57054;51.978;4.498;2023-05-07T03:27:48;101587.97;;;14.06;99.12
69784;BME280;57054;51.978;4.498;2023-05-07T03:30:14;101590.63;;;14.06;99.22
69784;BME280;57054;51.978;4.498;2023-05-07T03:32:39;101601.16;;;14.06;99.17
69784;BME280;57054;51.978;4.498;2023-05-07T03:35:05;101592.41;;;14.05;98.84
69784;BME280;57054;51.978;4.498;2023-05-07T03:37:31;101590.63;;;14.06;98.99
69784;BME280;57054;51.978;4.498;2023-05-07T03:39:56;101582.72;;;14.06;98.97
69784;BME280;57054;51.978;4.498;2023-05-07T03:42:21;101587.97;;;14.06;98.87
69784;BME280;57054;51.978;4.498;2023-05-07T03:44:47;101584.50;;;14.05;99.49
69784;BME280;57054;51.978;4.498;2023-05-07T03:47:12;101588.03;;;14.04;99.16
69784;BME280;57054;51.978;4.498;2023-05-07T03:49:39;101592.47;;;14.04;99.52
69784;BME280;57054;51.978;4.498;2023-05-07T03:52:05;101588.13;;;14.02;99.62
69784;BME280;57054;51.978;4.498;2023-05-07T03:54:30;101590.78;;;14.02;99.78
69784;BME280;57054;51.978;4.498;2023-05-07T03:56:56;101595.16;;;14.02;99.82
69784;BME280;57054;51.978;4.498;2023-05-07T03:59:22;101592.59;;;14.00;99.68
69784;BME280;57054;51.978;4.498;2023-05-07T04:01:47;101593.47;;;14.01;99.88
69784;BME280;57054;51.978;4.498;2023-05-07T04:04:13;101597.84;;;14.00;100.00
69784;BME280;57054;51.978;4.498;2023-05-07T04:06:39;101604.91;;;14.00;100.00
69784;BME280;57054;51.978;4.498;2023-05-07T04:09:04;101604.84;;;14.01;100.00
69784;BME280;57054;51.978;4.498;2023-05-07T04:11:30;101603.06;;;14.02;100.00
69784;BME280;57054;51.978;4.498;2023-05-07T04:13:55;101603.94;;;14.02;100.00
69784;BME280;57054;51.978;4.498;2023-05-07T04:16:21;101610.13;;;14.01;99.90
69784;BME280;57054;51.978;4.498;2023-05-07T04:18:46;101604.84;;;14.01;100.00
69784;BME280;57054;51.978;4.498;2023-05-07T04:21:19;101602.22;;;14.01;100.00
69784;BME280;57054;51.978;4.498;2023-05-07T04:23:46;101598.72;;;14.01;100.00
69784;BME280;57054;51.978;4.498;2023-05-07T04:26:12;101608.38;;;14.00;99.79
69784;BME280;57054;51.978;4.498;2023-05-07T04:28:38;101598.78;;;13.99;100.00
69784;BME280;57054;51.978;4.498;2023-05-07T04:31:05;101607.53;;;14.00;99.98
69784;BME280;57054;51.978;4.498;2023-05-07T04:33:30;101604.97;;;13.98;100.00
69784;BME280;57054;51.978;4.498;2023-05-07T04:35:56;101600.59;;;13.99;100.00
69784;BME280;57054;51.978;4.498;2023-05-07T04:38:22;101604.06;;;13.99;100.00
69784;BME280;57054;51.978;4.498;2023-05-07T04:40:48;101610.19;;;14.00;100.00
69784;BME280;57054;51.978;4.498;2023-05-07T04:43:14;101603.13;;;14.00;100.00
69784;BME280;57054;51.978;4.498;2023-05-07T04:45:39;101611.03;;;14.00;100.00
69784;BME280;57054;51.978;4.498;2023-05-07T04:48:06;101615.38;;;14.01;99.96
69784;BME280;57054;51.978;4.498;2023-05-07T04:50:32;101610.91;;;14.04;99.88
69784;BME280;57054;51.978;4.498;2023-05-07T04:52:58;101605.63;;;14.04;99.77
69784;BME280;57054;51.978;4.498;2023-05-07T04:55:23;101608.28;;;14.04;99.71
69784;BME280;57054;51.978;4.498;2023-05-07T04:57:49;101603.84;;;14.04;99.53
69784;BME280;57054;51.978;4.498;2023-05-07T05:00:14;101607.38;;;14.05;99.65
69784;BME280;57054;51.978;4.498;2023-05-07T05:02:40;101608.22;;;14.05;99.65
69784;BME280;57054;51.978;4.498;2023-05-07T05:05:06;101613.47;;;14.05;99.69
69784;BME280;57054;51.978;4.498;2023-05-07T05:07:32;101613.41;;;14.07;99.70
69784;BME280;57054;51.978;4.498;2023-05-07T05:09:57;101620.47;;;14.06;99.36
69784;BME280;57054;51.978;4.498;2023-05-07T05:12:23;101619.53;;;14.07;99.32
69784;BME280;57054;51.978;4.498;2023-05-07T05:14:48;101622.16;;;14.07;99.50
69784;BME280;57054;51.978;4.498;2023-05-07T05:17:14;101625.66;;;14.08;99.61
69784;BME280;57054;51.978;4.498;2023-05-07T05:19:39;101619.53;;;14.07;99.55
69784;BME280;57054;51.978;4.498;2023-05-07T05:22:05;101619.53;;;14.07;99.53
69784;BME280;57054;51.978;4.498;2023-05-07T05:24:31;101622.16;;;14.07;99.98
69784;BME280;57054;51.978;4.498;2023-05-07T05:26:56;101630.06;;;14.07;100.00
69784;BME280;57054;51.978;4.498;2023-05-07T05:29:22;101633.53;;;14.08;99.95
69784;BME280;57054;51.978;4.498;2023-05-07T05:31:47;101630.00;;;14.09;100.00
69784;BME280;57054;51.978;4.498;2023-05-07T05:34:13;101646.59;;;14.11;100.00
69784;BME280;57054;51.978;4.498;2023-05-07T05:36:38;101632.63;;;14.09;100.00
69784;BME280;57054;51.978;4.498;2023-05-07T05:39:04;101641.38;;;14.09;100.00
69784;BME280;57054;51.978;4.498;2023-05-07T05:41:29;101651.84;;;14.11;100.00
69784;BME280;57054;51.978;4.498;2023-05-07T05:43:55;101646.59;;;14.11;100.00
69784;BME280;57054;51.978;4.498;2023-05-07T05:46:21;101650.00;;;14.13;100.00
69784;BME280;57054;51.978;4.498;2023-05-07T05:48:46;101644.69;;;14.14;100.00
69784;BME280;57054;51.978;4.498;2023-05-07T05:51:11;101646.41;;;14.15;100.00
69784;BME280;57054;51.978;4.498;2023-05-07T05:53:37;101653.31;;;14.18;100.00
69784;BME280;57054;51.978;4.498;2023-05-07T05:56:02;101657.72;;;14.17;100.00
69784;BME280;57054;51.978;4.498;2023-05-07T05:58:28;101652.47;;;14.17;100.00
69784;BME280;57054;51.978;4.498;2023-05-07T06:00:53;101661.16;;;14.19;100.00
69784;BME280;57054;51.978;4.498;2023-05-07T06:03:19;101662.00;;;14.20;100.00
69784;BME280;57054;51.978;4.498;2023-05-07T06:05:45;101658.47;;;14.21;100.00
69784;BME280;57054;51.978;4.498;2023-05-07T06:08:10;101664.56;;;14.21;100.00
69784;BME280;57054;51.978;4.498;2023-05-07T06:10:37;101658.41;;;14.23;100.00
69784;BME280;57054;51.978;4.498;2023-05-07T06:13:02;101662.72;;;14.24;100.00
69784;BME280;57054;51.978;4.498;2023-05-07T06:15:27;101660.94;;;14.24;100.00
69784;BME280;57054;51.978;4.498;2023-05-07T06:17:53;101663.44;;;14.27;100.00
69784;BME280;57054;51.978;4.498;2023-05-07T06:20:21;101658.19;;;14.27;100.00
69784;BME280;57054;51.978;4.498;2023-05-07T06:22:46;101652.00;;;14.28;100.00
69784;BME280;57054;51.978;4.498;2023-05-07T06:25:11;101657.22;;;14.30;100.00
69784;BME280;57054;51.978;4.498;2023-05-07T06:27:37;101657.13;;;14.31;100.00
69784;BME280;57054;51.978;4.498;2023-05-07T06:30:05;101655.38;;;14.32;100.00
69784;BME280;57054;51.978;4.498;2023-05-07T06:32:31;101650.88;;;14.34;100.00
69784;BME280;57054;51.978;4.498;2023-05-07T06:34:56;101660.41;;;14.36;100.00
69784;BME280;57054;51.978;4.498;2023-05-07T06:37:21;101655.94;;;14.38;100.00
69784;BME280;57054;51.978;4.498;2023-05-07T06:39:47;101653.19;;;14.42;100.00
69784;BME280;57054;51.978;4.498;2023-05-07T06:42:12;101655.69;;;14.45;100.00
69784;BME280;57054;51.978;4.498;2023-05-07T06:44:37;101661.69;;;14.48;100.00
69784;BME280;57054;51.978;4.498;2023-05-07T06:47:03;101663.31;;;14.51;100.00
69784;BME280;57054;51.978;4.498;2023-05-07T06:49:28;101658.81;;;14.53;100.00
69784;BME280;57054;51.978;4.498;2023-05-07T06:51:54;101660.47;;;14.55;100.00
69784;BME280;57054;51.978;4.498;2023-05-07T06:54:20;101653.41;;;14.57;100.00
69784;BME280;57054;51.978;4.498;2023-05-07T06:56:45;101663.00;;;14.58;100.00
69784;BME280;57054;51.978;4.498;2023-05-07T06:59:11;101667.34;;;14.59;100.00
69784;BME280;57054;51.978;4.498;2023-05-07T07:01:36;101670.84;;;14.60;100.00
69784;BME280;57054;51.978;4.498;2023-05-07T07:04:02;101670.84;;;14.60;100.00
69784;BME280;57054;51.978;4.498;2023-05-07T07:06:28;101663.88;;;14.59;100.00
69784;BME280;57054;51.978;4.498;2023-05-07T07:08:53;101660.28;;;14.60;100.00
69784;BME280;57054;51.978;4.498;2023-05-07T07:11:19;101661.97;;;14.63;100.00
69784;BME280;57054;51.978;4.498;2023-05-07T07:13:44;101667.06;;;14.66;100.00
69784;BME280;57054;51.978;4.498;2023-05-07T07:16:09;101660.81;;;14.68;100.00
69784;BME280;57054;51.978;4.498;2023-05-07T07:18:35;101662.38;;;14.72;100.00
69784;BME280;57054;51.978;4.498;2023-05-07T07:21:01;101669.16;;;14.78;100.00
69784;BME280;57054;51.978;4.498;2023-05-07T07:23:26;101666.41;;;14.81;100.00
69784;BME280;57054;51.978;4.498;2023-05-07T07:25:51;101673.09;;;14.88;100.00
69784;BME280;57054;51.978;4.498;2023-05-07T07:28:17;101678.03;;;14.96;100.00
69784;BME280;57054;51.978;4.498;2023-05-07T07:30:43;101675.09;;;15.02;100.00
69784;BME280;57054;51.978;4.498;2023-05-07T07:33:08;101674.06;;;15.06;100.00
69784;BME280;57054;51.978;4.498;2023-05-07T07:35:34;101670.34;;;15.10;100.00
69784;BME280;57054;51.978;4.498;2023-05-07T07:37:59;101676.25;;;15.15;100.00
69784;BME280;57054;51.978;4.498;2023-05-07T07:40:25;101681.44;;;15.17;100.00
69784;BME280;57054;51.978;4.498;2023-05-07T07:42:51;101676.88;;;15.21;100.00
69784;BME280;57054;51.978;4.498;2023-05-07T07:45:17;101677.59;;;15.24;100.00
69784;BME280;57054;51.978;4.498;2023-05-07T07:47:42;101675.66;;;15.28;100.00
69784;BME280;57054;51.978;4.498;2023-05-07T07:50:08;101674.69;;;15.30;100.00
69784;BME280;57054;51.978;4.498;2023-05-07T07:52:34;101676.31;;;15.33;100.00
69784;BME280;57054;51.978;4.498;2023-05-07T07:55:00;101673.53;;;15.36;100.00
69784;BME280;57054;51.978;4.498;2023-05-07T07:57:25;101675.94;;;15.41;100.00
69784;BME280;57054;51.978;4.498;2023-05-07T07:59:51;101668.66;;;15.46;100.00
69784;BME280;57054;51.978;4.498;2023-05-07T08:02:17;101671.94;;;15.51;100.00
69784;BME280;57054;51.978;4.498;2023-05-07T08:04:42;101676.06;;;15.57;100.00
69784;BME280;57054;51.978;4.498;2023-05-07T08:07:11;101674.06;;;15.62;100.00
69784;BME280;57054;51.978;4.498;2023-05-07T08:09:37;101677.34;;;15.67;100.00
69784;BME280;57054;51.978;4.498;2023-05-07T08:12:03;101674.38;;;15.73;100.00
69784;BME280;57054;51.978;4.498;2023-05-07T08:14:29;101681.88;;;15.82;100.00
69784;BME280;57054;51.978;4.498;2023-05-07T08:16:55;101676.31;;;15.88;100.00
69784;BME280;57054;51.978;4.498;2023-05-07T08:19:20;101682.22;;;15.93;100.00
69784;BME280;57054;51.978;4.498;2023-05-07T08:21:47;101684.63;;;15.98;100.00
69784;BME280;57054;51.978;4.498;2023-05-07T08:24:16;101689.69;;;16.03;100.00
69784;BME280;57054;51.978;4.498;2023-05-07T08:26:42;101690.47;;;16.05;100.00
69784;BME280;57054;51.978;4.498;2023-05-07T08:29:08;101696.53;;;16.07;100.00
69784;BME280;57054;51.978;4.498;2023-05-07T08:31:33;101693.81;;;16.08;100.00
69784;BME280;57054;51.978;4.498;2023-05-07T08:33:59;101702.50;;;16.10;100.00
69784;BME280;57054;51.978;4.498;2023-05-07T08:36:25;101697.94;;;16.14;100.00
69784;BME280;57054;51.978;4.498;2023-05-07T08:38:51;101711.78;;;16.19;100.00
69784;BME280;57054;51.978;4.498;2023-05-07T08:41:17;101708.94;;;16.22;100.00
69784;BME280;57054;51.978;4.498;2023-05-07T08:43:47;101713.19;;;16.26;100.00
69784;BME280;57054;51.978;4.498;2023-05-07T08:46:17;101711.13;;;16.31;100.00
69784;BME280;57054;51.978;4.498;2023-05-07T08:48:42;101708.19;;;16.38;100.00
69784;BME280;57054;51.978;4.498;2023-05-07T08:51:13;101704.44;;;16.42;100.00
69784;BME280;57054;51.978;4.498;2023-05-07T08:53:40;101713.84;;;16.47;100.00
69784;BME280;57054;51.978;4.498;2023-05-07T08:56:08;101712.75;;;16.51;100.00
69784;BME280;57054;51.978;4.498;2023-05-07T08:58:33;101705.63;;;16.54;100.00
69784;BME280;57054;51.978;4.498;2023-05-07T09:01:05;101712.44;;;16.58;100.00
69784;BME280;57054;51.978;4.498;2023-05-07T09:03:32;101708.69;;;16.62;100.00
69784;BME280;57054;51.978;4.498;2023-05-07T09:05:57;101715.59;;;16.64;100.00
69784;BME280;57054;51.978;4.498;2023-05-07T09:08:27;101720.66;;;16.69;99.00
69784;BME280;57054;51.978;4.498;2023-05-07T09:10:53;101717.69;;;16.75;98.46
69784;BME280;57054;51.978;4.498;2023-05-07T09:13:19;101722.53;;;16.84;99.23
69784;BME280;57054;51.978;4.498;2023-05-07T09:15:45;101723.06;;;16.91;98.64
69784;BME280;57054;51.978;4.498;2023-05-07T09:18:11;101716.59;;;16.97;98.77
69784;BME280;57054;51.978;4.498;2023-05-07T09:20:37;101720.69;;;17.02;98.08
69784;BME280;57054;51.978;4.498;2023-05-07T09:23:03;101717.81;;;17.07;96.89
69784;BME280;57054;51.978;4.498;2023-05-07T09:25:30;101720.31;;;17.10;95.54
69784;BME280;57054;51.978;4.498;2023-05-07T09:27:56;101721.91;;;17.13;95.43
69784;BME280;57054;51.978;4.498;2023-05-07T09:30:21;101726.28;;;17.14;95.51
69784;BME280;57054;51.978;4.498;2023-05-07T09:32:46;101724.41;;;17.16;96.21
69784;BME280;57054;51.978;4.498;2023-05-07T09:35:16;101726.16;;;17.15;95.94
69784;BME280;57054;51.978;4.498;2023-05-07T09:37:47;101721.00;;;17.14;94.51
69784;BME280;57054;51.978;4.498;2023-05-07T09:40:30;101731.47;;;17.15;94.97
69784;BME280;57054;51.978;4.498;2023-05-07T09:42:56;101729.63;;;17.17;95.66
69784;BME280;57054;51.978;4.498;2023-05-07T09:45:33;101725.84;;;17.21;96.05
69784;BME280;57054;51.978;4.498;2023-05-07T09:47:58;101723.81;;;17.26;96.05
69784;BME280;57054;51.978;4.498;2023-05-07T09:50:29;101728.84;;;17.31;94.82
69784;BME280;57054;51.978;4.498;2023-05-07T09:52:56;101724.31;;;17.33;93.71
69784;BME280;57054;51.978;4.498;2023-05-07T09:55:22;101724.91;;;17.38;93.62
69784;BME280;57054;51.978;4.498;2023-05-07T09:57:51;101729.97;;;17.43;93.51
69784;BME280;57054;51.978;4.498;2023-05-07T10:00:19;101739.53;;;17.45;92.52
69784;BME280;57054;51.978;4.498;2023-05-07T10:02:49;101739.38;;;17.49;91.60
69784;BME280;57054;51.978;4.498;2023-05-07T10:05:18;101740.13;;;17.51;91.55
69784;BME280;57054;51.978;4.498;2023-05-07T10:07:45;101734.69;;;17.54;90.60
69784;BME280;57054;51.978;4.498;2023-05-07T10:10:12;101734.41;;;17.58;89.32
69784;BME280;57054;51.978;4.498;2023-05-07T10:12:38;101733.28;;;17.62;88.99
69784;BME280;57054;51.978;4.498;2023-05-07T10:15:06;101734.91;;;17.65;88.92
69784;BME280;57054;51.978;4.498;2023-05-07T10:17:36;101728.41;;;17.71;89.42
69784;BME280;57054;51.978;4.498;2023-05-07T10:20:02;101736.78;;;17.79;88.84
69784;BME280;57054;51.978;4.498;2023-05-07T10:22:32;101728.44;;;17.87;86.77
69784;BME280;57054;51.978;4.498;2023-05-07T10:24:59;101738.69;;;17.93;87.74
69784;BME280;57054;51.978;4.498;2023-05-07T10:27:28;101732.25;;;17.97;86.60
69784;BME280;57054;51.978;4.498;2023-05-07T10:30:25;101727.72;;;17.99;86.63
69784;BME280;57054;51.978;4.498;2023-05-07T10:32:55;101735.50;;;18.02;86.09
69784;BME280;57054;51.978;4.498;2023-05-07T10:35:24;101737.97;;;18.05;85.88
69784;BME280;57054;51.978;4.498;2023-05-07T10:37:51;101733.44;;;18.07;85.98
69784;BME280;57054;51.978;4.498;2023-05-07T10:40:17;101741.22;;;18.10;87.01
69784;BME280;57054;51.978;4.498;2023-05-07T10:45:21;101741.97;;;18.12;87.40
69784;BME280;57054;51.978;4.498;2023-05-07T10:48:16;101741.22;;;18.10;84.42
69784;BME280;57054;51.978;4.498;2023-05-07T10:50:43;101741.22;;;18.10;85.83
69784;BME280;57054;51.978;4.498;2023-05-07T10:55:49;101750.19;;;18.08;85.93
69784;BME280;57054;51.978;4.498;2023-05-07T10:58:29;101755.69;;;18.05;83.94
69784;BME280;57054;51.978;4.498;2023-05-07T11:01:01;101754.81;;;18.04;85.10
69784;BME280;57054;51.978;4.498;2023-05-07T11:03:27;101745.09;;;18.05;85.66
69784;BME280;57054;51.978;4.498;2023-05-07T11:06:09;101750.38;;;18.05;84.56
69784;BME280;57054;51.978;4.498;2023-05-07T11:08:55;101761.75;;;18.07;84.16
69784;BME280;57054;51.978;4.498;2023-05-07T11:11:51;101759.00;;;18.08;81.83
69784;BME280;57054;51.978;4.498;2023-05-07T11:14:54;101745.56;;;18.11;83.02
69784;BME280;57054;51.978;4.498;2023-05-07T11:17:20;101743.66;;;18.13;83.05
69784;BME280;57054;51.978;4.498;2023-05-07T11:19:54;101750.69;;;18.14;82.40
69784;BME280;57054;51.978;4.498;2023-05-07T11:25:01;101748.72;;;18.18;83.06
69784;BME280;57054;51.978;4.498;2023-05-07T11:27:28;101745.09;;;18.19;84.18
69784;BME280;57054;51.978;4.498;2023-05-07T11:29:54;101755.63;;;18.20;83.22
69784;BME280;57054;51.978;4.498;2023-05-07T11:32:23;101746.75;;;18.21;83.38
69784;BME280;57054;51.978;4.498;2023-05-07T11:34:55;101750.31;;;18.20;82.73
69784;BME280;57054;51.978;4.498;2023-05-07T11:37:22;101752.88;;;18.22;82.68
69784;BME280;57054;51.978;4.498;2023-05-07T11:39:48;101753.84;;;18.21;82.07
69784;BME280;57054;51.978;4.498;2023-05-07T11:42:31;101758.28;;;18.20;81.72
69784;BME280;57054;51.978;4.498;2023-05-07T11:44:57;101755.63;;;18.20;81.66
69784;BME280;57054;51.978;4.498;2023-05-07T11:47:23;101753.72;;;18.22;81.89
69784;BME280;57054;51.978;4.498;2023-05-07T11:49:52;101760.69;;;18.25;82.23
69784;BME280;57054;51.978;4.498;2023-05-07T11:52:19;101754.25;;;18.29;83.00
69784;BME280;57054;51.978;4.498;2023-05-07T11:54:54;101755.75;;;18.33;84.01
69784;BME280;57054;51.978;4.498;2023-05-07T11:57:21;101759.09;;;18.37;83.90
69784;BME280;57054;51.978;4.498;2023-05-07T11:59:46;101760.44;;;18.44;84.40
69784;BME280;57054;51.978;4.498;2023-05-07T12:02:17;101765.47;;;18.49;84.50
69784;BME280;57054;51.978;4.498;2023-05-07T12:04:42;101755.34;;;18.55;83.72
69784;BME280;57054;51.978;4.498;2023-05-07T12:07:12;101756.50;;;18.66;83.69
69784;BME280;57054;51.978;4.498;2023-05-07T12:09:38;101750.72;;;18.73;83.99
69784;BME280;57054;51.978;4.498;2023-05-07T12:12:04;101760.09;;;18.79;83.58
69784;BME280;57054;51.978;4.498;2023-05-07T12:14:30;101762.63;;;18.82;82.57
69784;BME280;57054;51.978;4.498;2023-05-07T12:16:55;101766.13;;;18.83;83.29
69784;BME280;57054;51.978;4.498;2023-05-07T12:19:21;101759.97;;;18.82;82.71
69784;BME280;57054;51.978;4.498;2023-05-07T12:21:47;101759.19;;;18.80;82.42
69784;BME280;57054;51.978;4.498;2023-05-07T12:24:14;101760.31;;;18.76;80.66
69784;BME280;57054;51.978;4.498;2023-05-07T12:26:40;101759.56;;;18.74;81.05
69784;BME280;57054;51.978;4.498;2023-05-07T12:29:06;101765.97;;;18.70;81.26
69784;BME280;57054;51.978;4.498;2023-05-07T12:31:31;101758.22;;;18.67;81.42
69784;BME280;57054;51.978;4.498;2023-05-07T12:33:57;101765.50;;;18.63;81.99
69784;BME280;57054;51.978;4.498;2023-05-07T12:36:22;101775.44;;;18.59;82.80
69784;BME280;57054;51.978;4.498;2023-05-07T12:38:49;101771.47;;;18.52;80.44
69784;BME280;57054;51.978;4.498;2023-05-07T12:41:15;101782.41;;;18.46;81.21
69784;BME280;57054;51.978;4.498;2023-05-07T12:43:43;101775.00;;;18.37;82.00
69784;BME280;57054;51.978;4.498;2023-05-07T12:46:09;101790.44;;;18.30;82.72
69784;BME280;57054;51.978;4.498;2023-05-07T12:48:36;101790.97;;;18.21;82.67
69784;BME280;57054;51.978;4.498;2023-05-07T12:51:02;101788.66;;;18.15;82.65
69784;BME280;57054;51.978;4.498;2023-05-07T12:53:28;101791.66;;;18.09;82.80
69784;BME280;57054;51.978;4.498;2023-05-07T12:55:58;101793.72;;;18.03;82.41